createdAt,value
2018-03-01T00:00:33.843Z,27.50
2018-03-01T00:03:01.933Z,27.50
2018-03-01T00:05:29.308Z,27.50
2018-03-01T00:07:56.640Z,27.80
2018-03-01T00:10:24.031Z,28.60
2018-03-01T00:15:19.663Z,27.90
2018-03-01T00:17:47.743Z,27.70
2018-03-01T00:22:43.415Z,28.00
2018-03-01T00:27:39.103Z,28.50
2018-03-01T00:30:06.547Z,28.20
2018-03-01T00:32:33.878Z,27.90
2018-03-01T00:35:01.412Z,28.00
2018-03-01T00:37:29.495Z,28.30
2018-03-01T00:39:57.667Z,28.50
2018-03-01T00:42:25.152Z,27.90
2018-03-01T00:44:53.199Z,28.30
2018-03-01T00:49:48.882Z,28.20
2018-03-01T00:52:16.223Z,28.00
2018-03-01T00:54:43.588Z,28.00
2018-03-01T00:59:39.203Z,28.50
2018-03-01T01:02:07.331Z,28.80
2018-03-01T01:07:02.990Z,28.70
2018-03-01T01:09:30.540Z,29.00
2018-03-01T01:11:58.751Z,32.60
2018-03-01T01:14:26.165Z,29.10
2018-03-01T01:16:53.553Z,30.50
2018-03-01T01:21:49.215Z,29.60
2018-03-01T01:24:16.586Z,29.30
2018-03-01T01:29:12.975Z,28.00
2018-03-01T01:31:41.059Z,28.00
2018-03-01T01:34:09.197Z,28.50
2018-03-01T01:36:37.410Z,28.90
2018-03-01T01:39:05.223Z,28.90
2018-03-01T01:41:33.314Z,29.20
2018-03-01T01:44:01.067Z,30.90
2018-03-01T01:48:57.867Z,29.80
2018-03-01T01:51:25.243Z,29.70
2018-03-01T01:53:53.883Z,30.60
2018-03-01T01:56:21.421Z,29.70
2018-03-01T01:58:48.929Z,29.40
2018-03-01T02:03:44.525Z,29.20
2018-03-01T02:06:12.688Z,28.70
2018-03-01T02:11:08.348Z,29.40
2018-03-01T02:13:36.520Z,31.10
2018-03-01T02:16:04.835Z,29.30
2018-03-01T02:18:32.191Z,29.80
2018-03-01T02:21:00.317Z,30.30
2018-03-01T02:23:28.432Z,30.80
2018-03-01T02:28:25.584Z,28.90
2018-03-01T02:33:21.238Z,28.60
2018-03-01T02:35:48.659Z,30.40
2018-03-01T02:38:15.990Z,34.50
2018-03-01T02:45:40.333Z,31.10
2018-03-01T02:48:08.448Z,35.30
2018-03-01T02:50:35.811Z,30.70
2018-03-01T02:53:03.183Z,29.30
2018-03-01T02:57:58.752Z,29.20
2018-03-01T03:02:55.352Z,28.50
2018-03-01T03:07:51.103Z,29.20
2018-03-01T03:10:19.208Z,28.50
2018-03-01T03:12:46.687Z,29.30
2018-03-01T03:15:14.798Z,29.00
2018-03-01T03:17:42.141Z,29.30
2018-03-01T03:20:09.465Z,29.80
2018-03-01T03:22:37.764Z,30.30
2018-03-01T03:25:05.114Z,31.30
2018-03-01T03:27:32.526Z,31.40
2018-03-01T03:30:00.108Z,29.90
2018-03-01T03:32:28.231Z,29.50
2018-03-01T03:34:55.537Z,29.10
2018-03-01T03:37:23.668Z,31.50
2018-03-01T03:42:19.652Z,31.80
2018-03-01T03:44:47.752Z,31.70
2018-03-01T03:47:15.084Z,33.10
2018-03-01T03:49:43.496Z,32.80
2018-03-01T03:52:11.671Z,29.10
2018-03-01T03:54:39.071Z,28.30
2018-03-01T03:57:07.130Z,28.90
2018-03-01T03:59:35.254Z,30.00
2018-03-01T04:02:02.592Z,29.40
2018-03-01T04:06:59.131Z,29.50
2018-03-01T04:09:27.225Z,30.80
2018-03-01T04:11:54.704Z,29.30
2018-03-01T04:14:22.769Z,28.60
2018-03-01T04:16:51.005Z,29.80
2018-03-01T04:21:47.381Z,28.90
2018-03-01T04:26:43.689Z,28.40
2018-03-01T04:29:11.816Z,28.50
2018-03-01T04:31:39.177Z,29.30
2018-03-01T04:34:06.596Z,30.40
2018-03-01T04:36:33.948Z,30.30
2018-03-01T04:39:01.340Z,28.90
2018-03-01T04:41:29.436Z,28.20
2018-03-01T04:43:57.000Z,29.10
2018-03-01T04:46:25.117Z,29.10
2018-03-01T04:48:53.236Z,28.60
2018-03-01T04:51:20.584Z,28.60
2018-03-01T04:56:16.967Z,28.80
2018-03-01T05:03:42.052Z,28.50
2018-03-01T05:06:09.625Z,28.50
2018-03-01T05:08:37.393Z,28.20
2018-03-01T05:13:33.775Z,28.80
2018-03-01T05:16:01.116Z,29.20
2018-03-01T05:20:57.671Z,28.90
2018-03-01T05:23:25.045Z,29.20
2018-03-01T05:25:53.100Z,29.90
2018-03-01T05:28:21.180Z,29.30
2018-03-01T05:30:49.660Z,28.70
2018-03-01T05:38:14.452Z,28.20
2018-03-01T05:40:41.795Z,28.80
2018-03-01T05:43:09.160Z,28.70
2018-03-01T05:48:05.187Z,29.20
2018-03-01T05:50:32.578Z,30.10
2018-03-01T05:52:59.985Z,30.00
2018-03-01T05:57:55.643Z,28.60
2018-03-01T06:02:51.258Z,28.80
2018-03-01T06:05:18.586Z,28.50
2018-03-01T06:07:45.996Z,28.60
2018-03-01T06:10:14.053Z,29.00
2018-03-01T06:15:10.585Z,31.20
2018-03-01T06:17:38.012Z,28.80
2018-03-01T06:20:05.394Z,28.60
2018-03-01T06:25:01.061Z,28.80
2018-03-01T06:29:57.488Z,29.40
2018-03-01T06:32:25.578Z,29.30
2018-03-01T06:34:53.200Z,29.10
2018-03-01T06:37:20.560Z,30.30
2018-03-01T06:39:47.952Z,29.60
2018-03-01T06:42:16.167Z,28.70
2018-03-01T06:44:44.231Z,28.50
2018-03-01T06:47:12.575Z,29.30
2018-03-01T06:49:39.929Z,28.80
2018-03-01T06:52:08.045Z,28.80
2018-03-01T06:57:03.674Z,28.60
2018-03-01T06:59:31.029Z,28.90
2018-03-01T07:01:58.404Z,33.50
2018-03-01T07:04:26.005Z,30.70
2018-03-01T07:06:53.344Z,28.70
2018-03-01T07:11:49.752Z,29.70
2018-03-01T07:14:17.884Z,30.00
2018-03-01T07:19:13.485Z,31.80
2018-03-01T07:21:40.816Z,31.50
2018-03-01T07:24:08.516Z,31.40
2018-03-01T07:29:04.940Z,28.50
2018-03-01T07:31:32.240Z,29.30
2018-03-01T07:34:00.464Z,31.20
2018-03-01T07:38:56.880Z,28.50
2018-03-01T07:41:24.268Z,28.50
2018-03-01T07:46:20.411Z,27.90
2018-03-01T07:48:47.772Z,28.70
2018-03-01T07:51:15.119Z,28.70
2018-03-01T07:58:39.052Z,28.40
2018-03-01T08:01:07.153Z,28.20
2018-03-01T08:03:34.516Z,27.60
2018-03-01T08:06:01.832Z,27.30
2018-03-01T08:13:26.056Z,27.40
2018-03-01T08:15:53.348Z,27.20
2018-03-01T08:20:49.884Z,27.00
2018-03-01T08:23:17.265Z,27.10
2018-03-01T08:25:44.784Z,27.10
2018-03-01T08:28:12.087Z,26.80
2018-03-01T08:33:07.720Z,26.70
2018-03-01T08:35:35.092Z,26.90
2018-03-01T08:38:03.239Z,26.70
2018-03-01T08:42:58.960Z,28.10
2018-03-01T08:45:26.329Z,27.60
2018-03-01T08:50:22.924Z,27.80
2018-03-01T08:52:50.852Z,27.10
2018-03-01T08:57:46.720Z,28.90
2018-03-01T09:00:14.285Z,28.30
2018-03-01T09:05:10.634Z,27.10
2018-03-01T09:07:37.981Z,27.30
2018-03-01T09:10:06.112Z,27.10
2018-03-01T09:12:34.259Z,27.30
2018-03-01T09:17:29.873Z,26.50
2018-03-01T09:22:25.656Z,26.50
2018-03-01T09:27:21.516Z,26.10
2018-03-01T09:29:48.852Z,26.70
2018-03-01T09:32:16.978Z,26.50
2018-03-01T09:39:41.776Z,25.30
2018-03-01T09:47:05.659Z,24.50
2018-03-01T09:49:33.015Z,24.30
2018-03-01T09:54:28.793Z,24.40
2018-03-01T09:59:25.144Z,24.90
2018-03-01T10:04:21.593Z,24.30
2018-03-01T10:06:49.029Z,25.50
2018-03-01T10:09:16.409Z,25.70
2018-03-01T10:11:43.985Z,25.30
2018-03-01T10:14:11.624Z,23.90
2018-03-01T10:16:39.028Z,22.80
2018-03-01T10:19:07.133Z,22.40
2018-03-01T10:21:35.216Z,22.30
2018-03-01T10:24:03.295Z,22.30
2018-03-01T10:26:30.942Z,22.60
2018-03-01T10:28:58.341Z,22.70
2018-03-01T10:31:25.726Z,23.10
2018-03-01T10:36:21.373Z,22.30
2018-03-01T10:41:17.005Z,22.70
2018-03-01T10:43:45.108Z,22.30
2018-03-01T10:46:12.468Z,22.00
2018-03-01T10:48:40.567Z,21.70
2018-03-01T10:51:07.916Z,21.90
2018-03-01T10:56:04.013Z,22.40
2018-03-01T10:58:31.327Z,22.20
2018-03-01T11:00:58.804Z,22.30
2018-03-01T11:05:54.904Z,21.10
2018-03-01T11:08:22.351Z,21.60
2018-03-01T11:10:49.703Z,20.70
2018-03-01T11:13:17.192Z,20.20
2018-03-01T11:15:45.477Z,19.50
2018-03-01T11:18:12.820Z,18.60
2018-03-01T11:23:08.460Z,15.70
2018-03-01T11:28:04.304Z,14.30
2018-03-01T11:30:31.665Z,13.70
2018-03-01T11:35:27.331Z,12.90
2018-03-01T11:37:54.705Z,12.40
2018-03-01T11:40:22.029Z,12.80
2018-03-01T11:42:50.114Z,13.00
2018-03-01T11:45:18.104Z,11.40
2018-03-01T11:47:45.476Z,12.10
2018-03-01T11:52:42.000Z,11.70
2018-03-01T11:57:38.830Z,12.30
2018-03-01T12:00:06.164Z,13.00
2018-03-01T12:02:33.523Z,13.10
2018-03-01T12:05:00.865Z,14.20
2018-03-01T12:07:28.208Z,16.30
2018-03-01T12:12:24.195Z,17.60
2018-03-01T12:14:51.543Z,17.90
2018-03-01T12:17:19.239Z,18.10
2018-03-01T12:22:15.808Z,18.40
2018-03-01T12:27:11.465Z,19.10
2018-03-01T12:29:39.152Z,19.20
2018-03-01T12:32:07.260Z,19.50
2018-03-01T12:37:03.223Z,19.50
2018-03-01T12:39:30.769Z,19.20
2018-03-01T12:44:26.584Z,19.20
2018-03-01T12:49:22.212Z,19.20
2018-03-01T12:54:17.839Z,18.60
2018-03-01T12:56:45.220Z,17.50
2018-03-01T13:01:41.812Z,18.10
2018-03-01T13:04:09.165Z,17.90
2018-03-01T13:06:36.568Z,16.40
2018-03-01T13:11:32.236Z,16.00
2018-03-01T13:14:00.492Z,16.40
2018-03-01T13:23:52.816Z,19.50
2018-03-01T13:26:20.241Z,18.70
2018-03-01T13:28:47.595Z,19.30
2018-03-01T13:31:16.000Z,19.80
2018-03-01T13:33:43.339Z,20.20
2018-03-01T13:36:11.627Z,20.30
2018-03-01T13:38:50.364Z,20.50
2018-03-01T13:41:18.811Z,20.20
2018-03-01T13:43:46.514Z,20.00
2018-03-01T13:46:16.868Z,20.00
2018-03-01T13:48:44.331Z,20.00
2018-03-01T13:51:20.530Z,20.10
2018-03-01T13:53:57.243Z,19.70
2018-03-01T13:56:28.274Z,18.60
2018-03-01T13:58:56.544Z,16.90
2018-03-01T14:01:24.092Z,16.50
2018-03-01T14:03:51.474Z,15.90
2018-03-01T14:06:23.120Z,15.70
2018-03-01T14:08:54.067Z,16.40
2018-03-01T14:11:23.173Z,16.90
2018-03-01T14:13:51.591Z,17.00
2018-03-01T14:16:19.141Z,17.10
2018-03-01T14:22:02.949Z,18.10
2018-03-01T14:24:38.582Z,19.10
2018-03-01T14:27:14.278Z,19.80
2018-03-01T14:29:50.404Z,20.00
2018-03-01T14:32:22.585Z,20.80
2018-03-01T14:34:52.671Z,21.10
2018-03-01T14:37:20.098Z,21.30
2018-03-01T14:39:49.120Z,21.30
2018-03-01T14:42:17.516Z,21.30
2018-03-01T14:44:49.985Z,21.50
2018-03-01T14:47:17.381Z,21.70
2018-03-01T14:49:47.793Z,21.90
2018-03-01T14:52:16.153Z,21.80
2018-03-01T14:54:45.425Z,22.10
2018-03-01T14:57:12.818Z,22.30
2018-03-01T14:59:40.211Z,22.70
2018-03-01T15:02:07.710Z,22.80
2018-03-01T15:04:35.909Z,22.60
2018-03-01T15:07:03.512Z,22.90
2018-03-01T15:09:32.582Z,23.20
2018-03-01T15:12:02.654Z,23.40
2018-03-01T15:14:38.169Z,23.50
2018-03-01T15:17:15.333Z,23.70
2018-03-01T15:19:49.534Z,24.00
2018-03-01T15:22:17.698Z,24.10
2018-03-01T15:24:45.868Z,23.90
2018-03-01T15:27:16.817Z,23.80
2018-03-01T15:29:46.872Z,24.10
2018-03-01T15:32:15.363Z,24.10
2018-03-01T15:34:46.900Z,23.90
2018-03-01T15:37:19.094Z,23.90
2018-03-01T15:39:46.572Z,24.00
2018-03-01T15:42:15.996Z,24.10
2018-03-01T15:44:44.518Z,24.10
2018-03-01T15:47:15.799Z,24.40
2018-03-01T15:49:47.436Z,25.10
2018-03-01T15:52:15.836Z,25.00
2018-03-01T15:54:47.053Z,24.80
2018-03-01T15:57:16.672Z,24.60
2018-03-01T15:59:49.370Z,24.70
2018-03-01T16:02:20.485Z,24.80
2018-03-01T16:04:50.613Z,24.80
2018-03-01T16:07:19.777Z,24.70
2018-03-01T16:10:07.730Z,24.40
2018-03-01T16:12:39.867Z,24.50
2018-03-01T16:15:08.408Z,25.30
2018-03-01T16:17:41.429Z,25.50
2018-03-01T16:20:08.860Z,25.30
2018-03-01T16:22:39.998Z,25.40
2018-03-01T16:25:07.414Z,25.30
2018-03-01T16:27:37.768Z,25.50
2018-03-01T16:30:05.154Z,25.80
2018-03-01T16:32:35.713Z,25.20
2018-03-01T16:35:05.773Z,25.30
2018-03-01T16:37:35.113Z,25.30
2018-03-01T16:40:04.277Z,25.50
2018-03-01T16:42:31.911Z,25.50
2018-03-01T16:44:59.325Z,25.50
2018-03-01T16:47:28.771Z,25.60
2018-03-01T16:49:59.949Z,25.70
2018-03-01T16:52:30.916Z,25.50
2018-03-01T16:55:01.087Z,25.40
2018-03-01T16:57:30.381Z,25.50
2018-03-01T16:59:58.757Z,25.30
2018-03-01T17:02:26.281Z,25.50
2018-03-01T17:04:54.584Z,25.20
2018-03-01T17:07:23.712Z,25.10
2018-03-01T17:09:52.009Z,25.00
2018-03-01T17:12:20.180Z,25.10
2018-03-01T17:14:51.521Z,25.00
2018-03-01T17:17:20.611Z,25.10
2018-03-01T17:19:48.817Z,25.10
2018-03-01T17:22:17.068Z,25.60
2018-03-01T17:24:48.038Z,25.30
2018-03-01T17:27:15.505Z,25.00
2018-03-01T17:29:45.907Z,25.20
2018-03-01T17:34:47.324Z,25.60
2018-03-01T17:37:16.359Z,26.20
2018-03-01T17:39:43.732Z,25.60
2018-03-01T17:42:13.953Z,27.30
2018-03-01T17:44:42.293Z,26.10
2018-03-01T17:47:09.738Z,26.80
2018-03-01T17:49:38.163Z,25.50
2018-03-01T17:52:05.600Z,25.50
2018-03-01T17:54:35.529Z,25.20
2018-03-01T17:57:07.818Z,25.40
2018-03-01T17:59:37.166Z,25.60
2018-03-01T18:04:34.587Z,25.70
2018-03-01T18:07:02.000Z,25.80
2018-03-01T18:09:32.141Z,28.10
2018-03-01T18:11:59.522Z,26.70
2018-03-01T18:14:30.439Z,25.40
2018-03-01T18:17:02.703Z,25.80
2018-03-01T18:19:32.644Z,25.80
2018-03-01T18:22:02.864Z,25.90
2018-03-01T18:24:32.005Z,25.60
2018-03-01T18:26:59.431Z,26.90
2018-03-01T18:29:28.962Z,25.50
2018-03-01T18:32:03.073Z,27.10
2018-03-01T18:34:32.563Z,26.10
2018-03-01T18:37:01.012Z,25.60
2018-03-01T18:39:30.122Z,25.20
2018-03-01T18:41:58.511Z,26.40
2018-03-01T18:44:28.876Z,26.20
2018-03-01T18:46:57.002Z,25.80
2018-03-01T18:49:32.324Z,25.80
2018-03-01T18:52:01.780Z,25.50
2018-03-01T18:54:29.242Z,25.60
2018-03-01T18:56:57.375Z,25.80
2018-03-01T18:59:26.692Z,26.30
2018-03-01T19:01:54.050Z,26.10
2018-03-01T19:04:22.028Z,27.40
2018-03-01T19:06:52.184Z,26.50
2018-03-01T19:09:19.532Z,25.70
2018-03-01T19:11:50.851Z,27.00
2018-03-01T19:14:19.122Z,27.00
2018-03-01T19:16:46.557Z,26.30
2018-03-01T19:19:14.412Z,26.20
2018-03-01T19:21:41.831Z,25.30
2018-03-01T19:24:13.746Z,26.60
2018-03-01T19:26:41.253Z,25.90
2018-03-01T19:29:09.342Z,26.40
2018-03-01T19:31:36.733Z,26.30
2018-03-01T19:34:04.448Z,28.00
2018-03-01T19:36:34.752Z,26.20
2018-03-01T19:39:02.904Z,26.70
2018-03-01T19:41:31.047Z,25.60
2018-03-01T19:43:59.446Z,25.80
2018-03-01T19:46:26.879Z,25.60
2018-03-01T19:48:54.299Z,25.80
2018-03-01T19:51:21.961Z,25.80
2018-03-01T19:53:56.549Z,25.90
2018-03-01T19:56:23.958Z,25.80
2018-03-01T19:58:51.342Z,26.20
2018-03-01T20:01:18.775Z,26.10
2018-03-01T20:03:46.925Z,27.30
2018-03-01T20:06:17.299Z,27.10
2018-03-01T20:08:45.838Z,26.70
2018-03-01T20:11:13.248Z,26.00
2018-03-01T20:13:43.576Z,26.30
2018-03-01T20:16:14.562Z,26.30
2018-03-01T20:18:42.941Z,29.40
2018-03-01T20:21:13.945Z,27.00
2018-03-01T20:23:44.287Z,26.60
2018-03-01T20:26:11.738Z,26.70
2018-03-01T20:28:39.853Z,27.80
2018-03-01T20:31:07.240Z,26.90
2018-03-01T20:33:35.722Z,26.60
2018-03-01T20:36:04.100Z,26.50
2018-03-01T20:38:31.485Z,27.10
2018-03-01T20:40:59.514Z,27.40
2018-03-01T20:43:26.977Z,27.40
2018-03-01T20:45:54.365Z,27.00
2018-03-01T20:48:23.557Z,27.00
2018-03-01T20:53:19.297Z,27.20
2018-03-01T20:55:46.775Z,28.90
2018-03-01T20:58:14.130Z,27.60
2018-03-01T21:00:41.679Z,27.40
2018-03-01T21:03:09.076Z,27.10
2018-03-01T21:05:38.383Z,27.20
2018-03-01T21:08:07.882Z,27.40
2018-03-01T21:10:35.281Z,27.40
2018-03-01T21:13:03.449Z,27.40
2018-03-01T21:15:32.872Z,27.60
2018-03-01T21:18:04.915Z,27.90
2018-03-01T21:20:34.221Z,27.80
2018-03-01T21:23:05.116Z,27.40
2018-03-01T21:25:32.575Z,28.20
2018-03-01T21:28:03.702Z,28.20
2018-03-01T21:30:32.728Z,28.00
2018-03-01T21:33:01.798Z,27.50
2018-03-01T21:38:02.537Z,27.90
2018-03-01T21:40:32.728Z,28.00
2018-03-01T21:43:00.976Z,28.30
2018-03-01T21:45:29.228Z,28.70
2018-03-01T21:47:59.518Z,28.10
2018-03-01T21:50:26.874Z,28.10
2018-03-01T21:52:54.276Z,29.50
2018-03-01T21:55:23.342Z,28.30
2018-03-01T21:57:50.742Z,28.10
2018-03-01T22:00:20.475Z,29.00
2018-03-01T22:02:48.625Z,28.70
2018-03-01T22:05:16.878Z,30.00
2018-03-01T22:07:44.436Z,28.80
2018-03-01T22:10:11.790Z,27.90
2018-03-01T22:12:39.213Z,27.90
2018-03-01T22:15:06.907Z,28.10
2018-03-01T22:17:34.321Z,28.70
2018-03-01T22:20:04.460Z,30.80
2018-03-01T22:22:35.496Z,28.50
2018-03-01T22:25:02.946Z,28.00
2018-03-01T22:27:31.225Z,28.50
2018-03-01T22:29:58.653Z,28.40
2018-03-01T22:32:26.240Z,28.80
2018-03-01T22:34:56.541Z,28.80
2018-03-01T22:37:27.071Z,29.50
2018-03-01T22:39:55.356Z,28.90
2018-03-01T22:42:22.995Z,28.70
2018-03-01T22:44:51.822Z,28.40
2018-03-01T22:47:20.142Z,29.30
2018-03-01T22:49:47.928Z,29.30
2018-03-01T22:52:16.068Z,31.60
2018-03-01T22:54:49.655Z,29.50
2018-03-01T22:57:18.224Z,29.80
2018-03-01T22:59:49.649Z,29.60
2018-03-01T23:02:17.052Z,30.00
2018-03-01T23:04:44.477Z,30.60
2018-03-01T23:07:13.867Z,29.10
2018-03-01T23:09:41.256Z,28.80
2018-03-01T23:12:08.660Z,29.40
2018-03-01T23:14:36.791Z,29.20
2018-03-01T23:17:05.720Z,29.30
2018-03-01T23:19:33.844Z,29.30
2018-03-01T23:22:02.006Z,30.00
2018-03-01T23:24:29.572Z,29.30
2018-03-01T23:26:57.727Z,32.10
2018-03-01T23:29:25.954Z,30.90
2018-03-01T23:36:49.844Z,30.70
2018-03-01T23:39:17.211Z,31.00
2018-03-01T23:44:14.312Z,28.90
2018-03-01T23:46:42.012Z,30.40
2018-03-01T23:49:09.794Z,31.10
2018-03-01T23:51:37.983Z,30.50
2018-03-01T23:54:07.517Z,31.50
2018-03-01T23:56:35.669Z,31.00
2018-03-01T23:59:04.208Z,32.00
